sensor_id;sensor_type;location;lat;lon;timestamp;P1;durP1;ratioP1;P2;durP2;ratioP2
49900;SDS011;35789;48.414;12.768;2023-04-03T00:00:00;7.3;;;3.4;;
49900;SDS011;35789;48.414;12.768;2023-04-03T00:05:00;7.3;;;3.4;;
49900;SDS011;35789;48.414;12.768;2023-04-03T00:10:00;5.2;;;2.5;;
49900;SDS011;35789;48.414;12.768;2023-04-03T00:15:00;5.2;;;2.5;;
49900;SDS011;35789;48.414;12.768;2023-04-03T00:20:00;5.2;;;2.5;;
49900;SDS011;35789;48.414;12.768;2023-04-03T00:25:00;5.2;;;2.5;;
49900;SDS011;35789;48.414;12.768;2023-04-03T00:30:00;5.2;;;2.5;;
49900;SDS011;35789;48.414;12.768;2023-04-03T00:35:00;5.2;;;2.5;;
49900;SDS011;35789;48.414;12.768;2023-04-03T00:40:01;4.9;;;1.9;;
49900;SDS011;35789;48.414;12.768;2023-04-03T00:50:01;4.9;;;1.9;;
49900;SDS011;35789;48.414;12.768;2023-04-03T00:55:03;4.9;;;1.9;;
49900;SDS011;35789;48.414;12.768;2023-04-03T01:00:03;4.9;;;1.9;;
49900;SDS011;35789;48.414;12.768;2023-04-03T01:05:00;4.9;;;1.9;;
49900;SDS011;35789;48.414;12.768;2023-04-03T01:10:05;5.4;;;2.4;;
49900;SDS011;35789;48.414;12.768;2023-04-03T01:15:02;5.4;;;2.4;;
49900;SDS011;35789;48.414;12.768;2023-04-03T01:20:13;5.4;;;2.4;;
49900;SDS011;35789;48.414;12.768;2023-04-03T01:25:01;5.4;;;2.4;;
49900;SDS011;35789;48.414;12.768;2023-04-03T01:30:00;5.4;;;2.4;;
49900;SDS011;35789;48.414;12.768;2023-04-03T01:35:00;5.4;;;2.4;;
49900;SDS011;35789;48.414;12.768;2023-04-03T01:40:00;4.7;;;1.8;;
49900;SDS011;35789;48.414;12.768;2023-04-03T01:45:00;4.7;;;1.8;;
49900;SDS011;35789;48.414;12.768;2023-04-03T01:50:00;4.7;;;1.8;;
49900;SDS011;35789;48.414;12.768;2023-04-03T01:55:00;4.7;;;1.8;;
49900;SDS011;35789;48.414;12.768;2023-04-03T02:00:00;4.7;;;1.8;;
49900;SDS011;35789;48.414;12.768;2023-04-03T02:05:00;4.7;;;1.8;;
49900;SDS011;35789;48.414;12.768;2023-04-03T02:10:00;5.4;;;1.8;;
49900;SDS011;35789;48.414;12.768;2023-04-03T02:15:00;5.4;;;1.8;;
49900;SDS011;35789;48.414;12.768;2023-04-03T02:20:01;5.4;;;1.8;;
49900;SDS011;35789;48.414;12.768;2023-04-03T02:25:00;5.4;;;1.8;;
49900;SDS011;35789;48.414;12.768;2023-04-03T02:30:00;5.4;;;1.8;;
49900;SDS011;35789;48.414;12.768;2023-04-03T02:35:00;5.4;;;1.8;;
49900;SDS011;35789;48.414;12.768;2023-04-03T02:40:01;4.4;;;2.0;;
49900;SDS011;35789;48.414;12.768;2023-04-03T02:45:00;4.4;;;2.0;;
49900;SDS011;35789;48.414;12.768;2023-04-03T02:50:00;4.4;;;2.0;;
49900;SDS011;35789;48.414;12.768;2023-04-03T02:55:00;4.4;;;2.0;;
49900;SDS011;35789;48.414;12.768;2023-04-03T03:00:00;4.4;;;2.0;;
49900;SDS011;35789;48.414;12.768;2023-04-03T03:05:00;4.4;;;2.0;;
49900;SDS011;35789;48.414;12.768;2023-04-03T03:10:00;3.8;;;1.5;;
49900;SDS011;35789;48.414;12.768;2023-04-03T03:15:06;3.8;;;1.5;;
49900;SDS011;35789;48.414;12.768;2023-04-03T03:20:00;3.8;;;1.5;;
49900;SDS011;35789;48.414;12.768;2023-04-03T03:25:00;3.8;;;1.5;;
49900;SDS011;35789;48.414;12.768;2023-04-03T03:30:00;3.8;;;1.5;;
49900;SDS011;35789;48.414;12.768;2023-04-03T03:35:00;3.8;;;1.5;;
49900;SDS011;35789;48.414;12.768;2023-04-03T03:40:00;4.2;;;1.6;;
49900;SDS011;35789;48.414;12.768;2023-04-03T03:45:00;4.2;;;1.6;;
49900;SDS011;35789;48.414;12.768;2023-04-03T03:50:00;4.2;;;1.6;;
49900;SDS011;35789;48.414;12.768;2023-04-03T03:55:00;4.2;;;1.6;;
49900;SDS011;35789;48.414;12.768;2023-04-03T04:00:00;4.2;;;1.6;;
49900;SDS011;35789;48.414;12.768;2023-04-03T04:05:00;4.2;;;1.6;;
49900;SDS011;35789;48.414;12.768;2023-04-03T04:10:00;5.8;;;2.1;;
49900;SDS011;35789;48.414;12.768;2023-04-03T04:15:01;5.8;;;2.1;;
49900;SDS011;35789;48.414;12.768;2023-04-03T04:20:00;5.8;;;2.1;;
49900;SDS011;35789;48.414;12.768;2023-04-03T04:25:00;5.8;;;2.1;;
49900;SDS011;35789;48.414;12.768;2023-04-03T04:30:01;5.8;;;2.1;;
49900;SDS011;35789;48.414;12.768;2023-04-03T04:35:00;5.8;;;2.1;;
49900;SDS011;35789;48.414;12.768;2023-04-03T04:40:00;4.9;;;2.0;;
49900;SDS011;35789;48.414;12.768;2023-04-03T04:45:00;4.9;;;2.0;;
49900;SDS011;35789;48.414;12.768;2023-04-03T04:50:00;4.9;;;2.0;;
49900;SDS011;35789;48.414;12.768;2023-04-03T04:55:00;4.9;;;2.0;;
49900;SDS011;35789;48.414;12.768;2023-04-03T05:00:00;4.9;;;2.0;;
49900;SDS011;35789;48.414;12.768;2023-04-03T05:05:00;4.9;;;2.0;;
49900;SDS011;35789;48.414;12.768;2023-04-03T05:10:00;4.6;;;1.8;;
49900;SDS011;35789;48.414;12.768;2023-04-03T05:15:00;4.6;;;1.8;;
49900;SDS011;35789;48.414;12.768;2023-04-03T05:20:01;4.6;;;1.8;;
49900;SDS011;35789;48.414;12.768;2023-04-03T05:25:00;4.6;;;1.8;;
49900;SDS011;35789;48.414;12.768;2023-04-03T05:30:00;4.6;;;1.8;;
49900;SDS011;35789;48.414;12.768;2023-04-03T05:35:00;4.0;;;1.4;;
49900;SDS011;35789;48.414;12.768;2023-04-03T05:40:01;4.0;;;1.4;;
49900;SDS011;35789;48.414;12.768;2023-04-03T05:45:00;4.0;;;1.4;;
49900;SDS011;35789;48.414;12.768;2023-04-03T05:50:00;4.0;;;1.4;;
49900;SDS011;35789;48.414;12.768;2023-04-03T05:55:00;4.0;;;1.4;;
49900;SDS011;35789;48.414;12.768;2023-04-03T06:00:00;4.0;;;1.4;;
49900;SDS011;35789;48.414;12.768;2023-04-03T06:05:00;5.8;;;2.2;;
49900;SDS011;35789;48.414;12.768;2023-04-03T06:10:01;5.8;;;2.2;;
49900;SDS011;35789;48.414;12.768;2023-04-03T06:15:00;5.8;;;2.2;;
49900;SDS011;35789;48.414;12.768;2023-04-03T06:20:00;5.8;;;2.2;;
49900;SDS011;35789;48.414;12.768;2023-04-03T06:25:00;5.8;;;2.2;;
49900;SDS011;35789;48.414;12.768;2023-04-03T06:30:00;5.8;;;2.2;;
49900;SDS011;35789;48.414;12.768;2023-04-03T06:35:00;4.3;;;1.7;;
49900;SDS011;35789;48.414;12.768;2023-04-03T06:40:00;4.3;;;1.7;;
49900;SDS011;35789;48.414;12.768;2023-04-03T06:45:00;4.3;;;1.7;;
49900;SDS011;35789;48.414;12.768;2023-04-03T06:50:00;4.3;;;1.7;;
49900;SDS011;35789;48.414;12.768;2023-04-03T06:55:00;4.3;;;1.7;;
49900;SDS011;35789;48.414;12.768;2023-04-03T07:00:00;4.3;;;1.7;;
49900;SDS011;35789;48.414;12.768;2023-04-03T07:05:00;4.2;;;2.2;;
49900;SDS011;35789;48.414;12.768;2023-04-03T07:10:00;4.2;;;2.2;;
49900;SDS011;35789;48.414;12.768;2023-04-03T07:15:00;4.2;;;2.2;;
49900;SDS011;35789;48.414;12.768;2023-04-03T07:20:00;4.2;;;2.2;;
49900;SDS011;35789;48.414;12.768;2023-04-03T07:25:00;4.2;;;2.2;;
49900;SDS011;35789;48.414;12.768;2023-04-03T07:30:00;4.2;;;2.2;;
49900;SDS011;35789;48.414;12.768;2023-04-03T07:35:00;5.3;;;2.4;;
49900;SDS011;35789;48.414;12.768;2023-04-03T07:40:00;5.3;;;2.4;;
49900;SDS011;35789;48.414;12.768;2023-04-03T07:45:00;5.3;;;2.4;;
49900;SDS011;35789;48.414;12.768;2023-04-03T07:50:00;5.3;;;2.4;;
49900;SDS011;35789;48.414;12.768;2023-04-03T07:55:00;5.3;;;2.4;;
49900;SDS011;35789;48.414;12.768;2023-04-03T08:00:01;5.3;;;2.4;;
49900;SDS011;35789;48.414;12.768;2023-04-03T08:05:01;4.4;;;1.7;;
49900;SDS011;35789;48.414;12.768;2023-04-03T08:10:00;4.4;;;1.7;;
49900;SDS011;35789;48.414;12.768;2023-04-03T08:15:00;4.4;;;1.7;;
49900;SDS011;35789;48.414;12.768;2023-04-03T08:20:01;4.4;;;1.7;;
49900;SDS011;35789;48.414;12.768;2023-04-03T08:25:00;4.4;;;1.7;;
49900;SDS011;35789;48.414;12.768;2023-04-03T08:30:00;4.4;;;1.7;;
49900;SDS011;35789;48.414;12.768;2023-04-03T08:35:00;5.7;;;1.6;;
49900;SDS011;35789;48.414;12.768;2023-04-03T08:40:00;5.7;;;1.6;;
49900;SDS011;35789;48.414;12.768;2023-04-03T08:45:06;5.7;;;1.6;;
49900;SDS011;35789;48.414;12.768;2023-04-03T08:50:02;5.7;;;1.6;;
49900;SDS011;35789;48.414;12.768;2023-04-03T08:55:02;5.7;;;1.6;;
49900;SDS011;35789;48.414;12.768;2023-04-03T09:00:15;5.7;;;1.6;;
49900;SDS011;35789;48.414;12.768;2023-04-03T09:05:02;3.5;;;1.2;;
49900;SDS011;35789;48.414;12.768;2023-04-03T09:10:01;3.5;;;1.2;;
49900;SDS011;35789;48.414;12.768;2023-04-03T09:15:10;3.5;;;1.2;;
49900;SDS011;35789;48.414;12.768;2023-04-03T09:20:09;3.5;;;1.2;;
49900;SDS011;35789;48.414;12.768;2023-04-03T09:25:05;3.5;;;1.2;;
49900;SDS011;35789;48.414;12.768;2023-04-03T09:30:00;3.5;;;1.2;;
49900;SDS011;35789;48.414;12.768;2023-04-03T09:35:02;3.9;;;1.3;;
49900;SDS011;35789;48.414;12.768;2023-04-03T09:40:00;3.9;;;1.3;;
49900;SDS011;35789;48.414;12.768;2023-04-03T09:45:03;3.9;;;1.3;;
49900;SDS011;35789;48.414;12.768;2023-04-03T09:50:19;3.9;;;1.3;;
49900;SDS011;35789;48.414;12.768;2023-04-03T09:55:06;3.9;;;1.3;;
49900;SDS011;35789;48.414;12.768;2023-04-03T10:00:01;3.9;;;1.3;;
49900;SDS011;35789;48.414;12.768;2023-04-03T10:05:01;4.2;;;1.4;;
49900;SDS011;35789;48.414;12.768;2023-04-03T10:10:03;4.2;;;1.4;;
49900;SDS011;35789;48.414;12.768;2023-04-03T10:15:01;4.2;;;1.4;;
49900;SDS011;35789;48.414;12.768;2023-04-03T10:20:06;4.2;;;1.4;;
49900;SDS011;35789;48.414;12.768;2023-04-03T10:25:04;4.2;;;1.4;;
49900;SDS011;35789;48.414;12.768;2023-04-03T10:30:08;4.2;;;1.4;;
49900;SDS011;35789;48.414;12.768;2023-04-03T10:35:07;3.1;;;1.2;;
49900;SDS011;35789;48.414;12.768;2023-04-03T10:40:05;3.1;;;1.2;;
49900;SDS011;35789;48.414;12.768;2023-04-03T10:45:10;3.1;;;1.2;;
49900;SDS011;35789;48.414;12.768;2023-04-03T10:50:12;3.1;;;1.2;;
49900;SDS011;35789;48.414;12.768;2023-04-03T10:55:07;3.1;;;1.2;;
49900;SDS011;35789;48.414;12.768;2023-04-03T11:00:03;3.1;;;1.2;;
49900;SDS011;35789;48.414;12.768;2023-04-03T11:05:03;4.6;;;1.4;;
49900;SDS011;35789;48.414;12.768;2023-04-03T11:10:03;4.6;;;1.4;;
49900;SDS011;35789;48.414;12.768;2023-04-03T11:15:02;4.6;;;1.4;;
49900;SDS011;35789;48.414;12.768;2023-04-03T11:20:06;4.6;;;1.4;;
49900;SDS011;35789;48.414;12.768;2023-04-03T11:25:04;4.6;;;1.4;;
49900;SDS011;35789;48.414;12.768;2023-04-03T11:30:01;4.6;;;1.4;;
49900;SDS011;35789;48.414;12.768;2023-04-03T11:35:02;4.2;;;0.9;;
49900;SDS011;35789;48.414;12.768;2023-04-03T11:40:04;4.2;;;0.9;;
49900;SDS011;35789;48.414;12.768;2023-04-03T11:50:01;4.2;;;0.9;;
49900;SDS011;35789;48.414;12.768;2023-04-03T11:55:00;4.2;;;0.9;;
49900;SDS011;35789;48.414;12.768;2023-04-03T12:00:01;4.2;;;0.9;;
49900;SDS011;35789;48.414;12.768;2023-04-03T12:10:00;3.0;;;0.8;;
49900;SDS011;35789;48.414;12.768;2023-04-03T12:15:12;3.0;;;0.8;;
49900;SDS011;35789;48.414;12.768;2023-04-03T12:20:00;3.0;;;0.8;;
49900;SDS011;35789;48.414;12.768;2023-04-03T12:30:07;3.0;;;0.8;;
49900;SDS011;35789;48.414;12.768;2023-04-03T12:35:10;2.9;;;0.6;;
49900;SDS011;35789;48.414;12.768;2023-04-03T12:40:07;2.9;;;0.6;;
49900;SDS011;35789;48.414;12.768;2023-04-03T12:45:06;2.9;;;0.6;;
49900;SDS011;35789;48.414;12.768;2023-04-03T12:50:02;2.9;;;0.6;;
49900;SDS011;35789;48.414;12.768;2023-04-03T12:55:01;2.9;;;0.6;;
49900;SDS011;35789;48.414;12.768;2023-04-03T13:00:18;2.9;;;0.6;;
49900;SDS011;35789;48.414;12.768;2023-04-03T13:05:06;2.4;;;0.8;;
49900;SDS011;35789;48.414;12.768;2023-04-03T13:10:04;2.4;;;0.8;;
49900;SDS011;35789;48.414;12.768;2023-04-03T13:15:10;2.4;;;0.8;;
49900;SDS011;35789;48.414;12.768;2023-04-03T13:20:11;2.4;;;0.8;;
49900;SDS011;35789;48.414;12.768;2023-04-03T13:25:05;2.4;;;0.8;;
49900;SDS011;35789;48.414;12.768;2023-04-03T13:30:02;2.4;;;0.8;;
49900;SDS011;35789;48.414;12.768;2023-04-03T13:35:00;3.5;;;0.8;;
49900;SDS011;35789;48.414;12.768;2023-04-03T13:40:03;3.5;;;0.8;;
49900;SDS011;35789;48.414;12.768;2023-04-03T13:45:16;3.5;;;0.8;;
49900;SDS011;35789;48.414;12.768;2023-04-03T13:50:03;3.5;;;0.8;;
49900;SDS011;35789;48.414;12.768;2023-04-03T13:55:03;3.5;;;0.8;;
49900;SDS011;35789;48.414;12.768;2023-04-03T14:05:02;3.2;;;0.9;;
49900;SDS011;35789;48.414;12.768;2023-04-03T14:10:00;3.2;;;0.9;;
49900;SDS011;35789;48.414;12.768;2023-04-03T14:15:02;3.2;;;0.9;;
49900;SDS011;35789;48.414;12.768;2023-04-03T14:20:00;3.2;;;0.9;;
49900;SDS011;35789;48.414;12.768;2023-04-03T14:25:00;3.2;;;0.9;;
49900;SDS011;35789;48.414;12.768;2023-04-03T14:30:01;3.2;;;0.9;;
49900;SDS011;35789;48.414;12.768;2023-04-03T14:35:00;3.1;;;0.6;;
49900;SDS011;35789;48.414;12.768;2023-04-03T14:40:02;3.1;;;0.6;;
49900;SDS011;35789;48.414;12.768;2023-04-03T14:45:06;3.1;;;0.6;;
49900;SDS011;35789;48.414;12.768;2023-04-03T14:50:02;3.1;;;0.6;;
49900;SDS011;35789;48.414;12.768;2023-04-03T14:55:02;3.1;;;0.6;;
49900;SDS011;35789;48.414;12.768;2023-04-03T15:00:01;3.1;;;0.6;;
49900;SDS011;35789;48.414;12.768;2023-04-03T15:05:03;3.9;;;1.4;;
49900;SDS011;35789;48.414;12.768;2023-04-03T15:10:02;3.9;;;1.4;;
49900;SDS011;35789;48.414;12.768;2023-04-03T15:15:00;3.9;;;1.4;;
49900;SDS011;35789;48.414;12.768;2023-04-03T15:20:01;3.9;;;1.4;;
49900;SDS011;35789;48.414;12.768;2023-04-03T15:25:00;3.9;;;1.4;;
49900;SDS011;35789;48.414;12.768;2023-04-03T15:30:00;3.9;;;1.4;;
49900;SDS011;35789;48.414;12.768;2023-04-03T15:35:00;4.3;;;1.0;;
49900;SDS011;35789;48.414;12.768;2023-04-03T15:40:00;4.3;;;1.0;;
49900;SDS011;35789;48.414;12.768;2023-04-03T15:45:01;4.3;;;1.0;;
49900;SDS011;35789;48.414;12.768;2023-04-03T15:50:00;4.3;;;1.0;;
49900;SDS011;35789;48.414;12.768;2023-04-03T15:55:00;4.3;;;1.0;;
49900;SDS011;35789;48.414;12.768;2023-04-03T16:00:00;4.3;;;1.0;;
49900;SDS011;35789;48.414;12.768;2023-04-03T16:05:00;3.6;;;1.4;;
49900;SDS011;35789;48.414;12.768;2023-04-03T16:10:00;3.6;;;1.4;;
49900;SDS011;35789;48.414;12.768;2023-04-03T16:15:00;3.6;;;1.4;;
49900;SDS011;35789;48.414;12.768;2023-04-03T16:20:00;3.6;;;1.4;;
49900;SDS011;35789;48.414;12.768;2023-04-03T16:25:01;3.6;;;1.4;;
49900;SDS011;35789;48.414;12.768;2023-04-03T16:30:00;3.6;;;1.4;;
49900;SDS011;35789;48.414;12.768;2023-04-03T16:35:00;4.1;;;1.4;;
49900;SDS011;35789;48.414;12.768;2023-04-03T16:40:00;4.1;;;1.4;;
49900;SDS011;35789;48.414;12.768;2023-04-03T16:45:00;4.1;;;1.4;;
49900;SDS011;35789;48.414;12.768;2023-04-03T16:50:00;4.1;;;1.4;;
49900;SDS011;35789;48.414;12.768;2023-04-03T16:55:00;4.1;;;1.4;;
49900;SDS011;35789;48.414;12.768;2023-04-03T17:00:00;4.1;;;1.4;;
49900;SDS011;35789;48.414;12.768;2023-04-03T17:05:00;2.9;;;1.0;;
49900;SDS011;35789;48.414;12.768;2023-04-03T17:10:00;2.9;;;1.0;;
49900;SDS011;35789;48.414;12.768;2023-04-03T17:15:00;2.9;;;1.0;;
49900;SDS011;35789;48.414;12.768;2023-04-03T17:20:01;2.9;;;1.0;;
49900;SDS011;35789;48.414;12.768;2023-04-03T17:25:00;2.9;;;1.0;;
49900;SDS011;35789;48.414;12.768;2023-04-03T17:30:00;2.9;;;1.0;;
49900;SDS011;35789;48.414;12.768;2023-04-03T17:35:00;3.8;;;1.4;;
49900;SDS011;35789;48.414;12.768;2023-04-03T17:40:00;3.8;;;1.4;;
49900;SDS011;35789;48.414;12.768;2023-04-03T17:45:00;3.8;;;1.4;;
49900;SDS011;35789;48.414;12.768;2023-04-03T17:50:00;3.8;;;1.4;;
49900;SDS011;35789;48.414;12.768;2023-04-03T17:55:00;3.8;;;1.4;;
49900;SDS011;35789;48.414;12.768;2023-04-03T18:00:00;3.8;;;1.4;;
49900;SDS011;35789;48.414;12.768;2023-04-03T18:05:01;3.1;;;0.9;;
49900;SDS011;35789;48.414;12.768;2023-04-03T18:10:00;3.1;;;0.9;;
49900;SDS011;35789;48.414;12.768;2023-04-03T18:15:02;3.1;;;0.9;;
49900;SDS011;35789;48.414;12.768;2023-04-03T18:20:00;3.1;;;0.9;;
49900;SDS011;35789;48.414;12.768;2023-04-03T18:25:00;3.1;;;0.9;;
49900;SDS011;35789;48.414;12.768;2023-04-03T18:30:06;5.2;;;1.8;;
49900;SDS011;35789;48.414;12.768;2023-04-03T18:35:00;5.2;;;1.8;;
49900;SDS011;35789;48.414;12.768;2023-04-03T18:40:00;5.2;;;1.8;;
49900;SDS011;35789;48.414;12.768;2023-04-03T18:45:03;5.2;;;1.8;;
49900;SDS011;35789;48.414;12.768;2023-04-03T18:50:00;5.2;;;1.8;;
49900;SDS011;35789;48.414;12.768;2023-04-03T18:55:00;5.2;;;1.8;;
49900;SDS011;35789;48.414;12.768;2023-04-03T19:00:00;4.5;;;1.6;;
49900;SDS011;35789;48.414;12.768;2023-04-03T19:05:00;4.5;;;1.6;;
49900;SDS011;35789;48.414;12.768;2023-04-03T19:10:00;4.5;;;1.6;;
49900;SDS011;35789;48.414;12.768;2023-04-03T19:15:00;4.5;;;1.6;;
49900;SDS011;35789;48.414;12.768;2023-04-03T19:20:00;4.5;;;1.6;;
49900;SDS011;35789;48.414;12.768;2023-04-03T19:25:01;4.5;;;1.6;;
49900;SDS011;35789;48.414;12.768;2023-04-03T19:30:00;2.7;;;0.8;;
49900;SDS011;35789;48.414;12.768;2023-04-03T19:35:00;2.7;;;0.8;;
49900;SDS011;35789;48.414;12.768;2023-04-03T19:40:00;2.7;;;0.8;;
49900;SDS011;35789;48.414;12.768;2023-04-03T19:45:01;2.7;;;0.8;;
49900;SDS011;35789;48.414;12.768;2023-04-03T19:50:01;2.7;;;0.8;;
49900;SDS011;35789;48.414;12.768;2023-04-03T19:55:00;2.7;;;0.8;;
49900;SDS011;35789;48.414;12.768;2023-04-03T20:00:00;3.9;;;1.1;;
49900;SDS011;35789;48.414;12.768;2023-04-03T20:05:00;3.9;;;1.1;;
49900;SDS011;35789;48.414;12.768;2023-04-03T20:10:00;3.9;;;1.1;;
49900;SDS011;35789;48.414;12.768;2023-04-03T20:15:00;3.9;;;1.1;;
49900;SDS011;35789;48.414;12.768;2023-04-03T20:20:01;3.9;;;1.1;;
49900;SDS011;35789;48.414;12.768;2023-04-03T20:25:01;3.9;;;1.1;;
49900;SDS011;35789;48.414;12.768;2023-04-03T20:30:00;4.7;;;1.1;;
49900;SDS011;35789;48.414;12.768;2023-04-03T20:35:00;4.7;;;1.1;;
49900;SDS011;35789;48.414;12.768;2023-04-03T20:40:00;4.7;;;1.1;;
49900;SDS011;35789;48.414;12.768;2023-04-03T20:45:00;4.7;;;1.1;;
49900;SDS011;35789;48.414;12.768;2023-04-03T20:50:00;4.7;;;1.1;;
49900;SDS011;35789;48.414;12.768;2023-04-03T20:55:00;4.7;;;1.1;;
49900;SDS011;35789;48.414;12.768;2023-04-03T21:00:00;4.6;;;1.3;;
49900;SDS011;35789;48.414;12.768;2023-04-03T21:05:01;4.6;;;1.3;;
49900;SDS011;35789;48.414;12.768;2023-04-03T21:20:01;4.6;;;1.3;;
49900;SDS011;35789;48.414;12.768;2023-04-03T21:25:01;4.6;;;1.3;;
49900;SDS011;35789;48.414;12.768;2023-04-03T21:30:01;3.4;;;1.2;;
49900;SDS011;35789;48.414;12.768;2023-04-03T21:35:00;3.4;;;1.2;;
49900;SDS011;35789;48.414;12.768;2023-04-03T21:40:00;3.4;;;1.2;;
49900;SDS011;35789;48.414;12.768;2023-04-03T21:45:00;3.4;;;1.2;;
49900;SDS011;35789;48.414;12.768;2023-04-03T21:50:00;3.4;;;1.2;;
49900;SDS011;35789;48.414;12.768;2023-04-03T21:55:00;3.4;;;1.2;;
49900;SDS011;35789;48.414;12.768;2023-04-03T22:00:00;4.2;;;0.7;;
49900;SDS011;35789;48.414;12.768;2023-04-03T22:05:00;4.2;;;0.7;;
49900;SDS011;35789;48.414;12.768;2023-04-03T22:10:00;4.2;;;0.7;;
49900;SDS011;35789;48.414;12.768;2023-04-03T22:15:01;4.2;;;0.7;;
49900;SDS011;35789;48.414;12.768;2023-04-03T22:20:00;4.2;;;0.7;;
49900;SDS011;35789;48.414;12.768;2023-04-03T22:25:00;4.2;;;0.7;;
49900;SDS011;35789;48.414;12.768;2023-04-03T22:30:00;5.0;;;1.3;;
49900;SDS011;35789;48.414;12.768;2023-04-03T22:35:00;5.0;;;1.3;;
49900;SDS011;35789;48.414;12.768;2023-04-03T22:40:00;5.0;;;1.3;;
49900;SDS011;35789;48.414;12.768;2023-04-03T22:45:00;5.0;;;1.3;;
49900;SDS011;35789;48.414;12.768;2023-04-03T22:50:00;5.0;;;1.3;;
49900;SDS011;35789;48.414;12.768;2023-04-03T22:55:00;5.0;;;1.3;;
49900;SDS011;35789;48.414;12.768;2023-04-03T23:00:00;2.7;;;0.7;;
49900;SDS011;35789;48.414;12.768;2023-04-03T23:05:00;2.7;;;0.7;;
49900;SDS011;35789;48.414;12.768;2023-04-03T23:10:00;2.7;;;0.7;;
49900;SDS011;35789;48.414;12.768;2023-04-03T23:15:00;2.7;;;0.7;;
49900;SDS011;35789;48.414;12.768;2023-04-03T23:20:00;2.7;;;0.7;;
49900;SDS011;35789;48.414;12.768;2023-04-03T23:25:00;2.7;;;0.7;;
49900;SDS011;35789;48.414;12.768;2023-04-03T23:30:00;4.6;;;0.8;;
49900;SDS011;35789;48.414;12.768;2023-04-03T23:35:00;4.6;;;0.8;;
49900;SDS011;35789;48.414;12.768;2023-04-03T23:40:00;4.6;;;0.8;;
49900;SDS011;35789;48.414;12.768;2023-04-03T23:45:00;4.6;;;0.8;;
49900;SDS011;35789;48.414;12.768;2023-04-03T23:50:00;4.6;;;0.8;;
49900;SDS011;35789;48.414;12.768;2023-04-03T23:55:00;4.6;;;0.8;;
